sensor_id;sensor_type;location;lat;lon;timestamp;pressure;altitude;pressure_sealevel;temperature;humidity
3082;BME280;1551;51.046;7.010;2024-01-06T00:00:45;99584.22;;;8.77;89.74
3082;BME280;1551;51.046;7.010;2024-01-06T00:03:34;99582.44;;;8.81;90.09
3082;BME280;1551;51.046;7.010;2024-01-06T00:06:23;99581.56;;;8.82;90.25
3082;BME280;1551;51.046;7.010;2024-01-06T00:09:12;99585.06;;;8.78;90.30
3082;BME280;1551;51.046;7.010;2024-01-06T00:12:02;99585.00;;;8.81;90.04
3082;BME280;1551;51.046;7.010;2024-01-06T00:14:51;99590.13;;;8.79;89.77
3082;BME280;1551;51.046;7.010;2024-01-06T00:17:40;99593.50;;;8.80;90.41
3082;BME280;1551;51.046;7.010;2024-01-06T00:20:28;99589.31;;;8.77;90.70
3082;BME280;1551;51.046;7.010;2024-01-06T00:23:17;99598.41;;;8.89;90.76
3082;BME280;1551;51.046;7.010;2024-01-06T00:26:07;99595.75;;;8.95;90.75
3082;BME280;1551;51.046;7.010;2024-01-06T00:28:57;99597.41;;;8.96;89.59
3082;BME280;1551;51.046;7.010;2024-01-06T00:31:46;99599.16;;;8.95;89.35
3082;BME280;1551;51.046;7.010;2024-01-06T00:34:35;99601.53;;;9.03;90.31
3082;BME280;1551;51.046;7.010;2024-01-06T00:37:24;99599.91;;;8.99;90.39
3082;BME280;1551;51.046;7.010;2024-01-06T00:40:13;99608.38;;;9.03;90.13
3082;BME280;1551;51.046;7.010;2024-01-06T00:43:02;99604.22;;;8.97;90.03
3082;BME280;1551;51.046;7.010;2024-01-06T00:45:51;99608.56;;;8.92;90.21
3082;BME280;1551;51.046;7.010;2024-01-06T00:48:40;99602.66;;;8.90;90.73
3082;BME280;1551;51.046;7.010;2024-01-06T00:51:29;99607.88;;;8.84;91.37
3082;BME280;1551;51.046;7.010;2024-01-06T00:54:18;99612.16;;;8.82;91.41
3082;BME280;1551;51.046;7.010;2024-01-06T00:57:07;99613.03;;;8.82;92.18
3082;BME280;1551;51.046;7.010;2024-01-06T00:59:56;99613.81;;;8.84;92.65
3082;BME280;1551;51.046;7.010;2024-01-06T01:02:45;99619.78;;;8.85;92.72
3082;BME280;1551;51.046;7.010;2024-01-06T01:05:34;99616.59;;;8.74;92.61
3082;BME280;1551;51.046;7.010;2024-01-06T01:08:23;99611.41;;;8.78;92.50
3082;BME280;1551;51.046;7.010;2024-01-06T01:11:11;99615.72;;;8.76;93.52
3082;BME280;1551;51.046;7.010;2024-01-06T01:14:00;99623.19;;;8.84;93.03
3082;BME280;1551;51.046;7.010;2024-01-06T01:16:49;99616.66;;;8.71;93.11
3082;BME280;1551;51.046;7.010;2024-01-06T01:19:38;99614.16;;;8.69;93.71
3082;BME280;1551;51.046;7.010;2024-01-06T01:22:27;99622.63;;;8.70;93.88
3082;BME280;1551;51.046;7.010;2024-01-06T01:25:16;99619.22;;;8.71;94.50
3082;BME280;1551;51.046;7.010;2024-01-06T01:28:05;99625.06;;;8.76;94.65
3082;BME280;1551;51.046;7.010;2024-01-06T01:30:54;99624.94;;;8.82;94.60
3082;BME280;1551;51.046;7.010;2024-01-06T01:33:43;99632.63;;;8.80;94.91
3082;BME280;1551;51.046;7.010;2024-01-06T01:36:32;99632.75;;;8.74;94.21
3082;BME280;1551;51.046;7.010;2024-01-06T01:39:21;99639.53;;;8.75;94.95
3082;BME280;1551;51.046;7.010;2024-01-06T01:42:10;99644.56;;;8.78;95.73
3082;BME280;1551;51.046;7.010;2024-01-06T01:44:59;99645.41;;;8.79;95.34
3082;BME280;1551;51.046;7.010;2024-01-06T01:47:48;99647.22;;;8.72;95.50
3082;BME280;1551;51.046;7.010;2024-01-06T01:50:38;99645.53;;;8.73;95.49
3082;BME280;1551;51.046;7.010;2024-01-06T01:53:27;99640.31;;;8.77;95.80
3082;BME280;1551;51.046;7.010;2024-01-06T01:56:16;99641.22;;;8.76;95.46
3082;BME280;1551;51.046;7.010;2024-01-06T01:59:09;99637.84;;;8.74;95.38
3082;BME280;1551;51.046;7.010;2024-01-06T02:02:00;99649.78;;;8.72;96.28
3082;BME280;1551;51.046;7.010;2024-01-06T02:04:50;99644.56;;;8.78;96.84
3082;BME280;1551;51.046;7.010;2024-01-06T02:07:40;99641.13;;;8.81;96.50
3082;BME280;1551;51.046;7.010;2024-01-06T02:10:29;99652.19;;;8.80;95.92
3082;BME280;1551;51.046;7.010;2024-01-06T02:13:18;99653.78;;;8.85;96.35
3082;BME280;1551;51.046;7.010;2024-01-06T02:16:08;99650.44;;;8.83;96.18
3082;BME280;1551;51.046;7.010;2024-01-06T02:18:57;99647.16;;;8.75;96.71
3082;BME280;1551;51.046;7.010;2024-01-06T02:21:53;99658.13;;;8.80;97.01
3082;BME280;1551;51.046;7.010;2024-01-06T02:24:42;99655.53;;;8.82;97.05
3082;BME280;1551;51.046;7.010;2024-01-06T02:27:31;99663.84;;;8.93;96.59
3082;BME280;1551;51.046;7.010;2024-01-06T02:30:20;99666.31;;;8.97;96.38
3082;BME280;1551;51.046;7.010;2024-01-06T02:33:10;99667.06;;;9.01;95.95
3082;BME280;1551;51.046;7.010;2024-01-06T02:35:58;99667.97;;;8.98;95.99
3082;BME280;1551;51.046;7.010;2024-01-06T02:38:47;99673.91;;;8.99;95.77
3082;BME280;1551;51.046;7.010;2024-01-06T02:41:36;99674.81;;;8.96;96.34
3082;BME280;1551;51.046;7.010;2024-01-06T02:44:25;99668.88;;;8.96;96.48
3082;BME280;1551;51.046;7.010;2024-01-06T02:47:14;99678.31;;;8.92;95.85
3082;BME280;1551;51.046;7.010;2024-01-06T02:50:04;99673.16;;;8.95;96.43
3082;BME280;1551;51.046;7.010;2024-01-06T02:52:53;99674.81;;;8.96;95.95
3082;BME280;1551;51.046;7.010;2024-01-06T02:55:42;99682.41;;;8.99;96.70
3082;BME280;1551;51.046;7.010;2024-01-06T02:58:31;99686.72;;;8.97;96.40
3082;BME280;1551;51.046;7.010;2024-01-06T03:01:20;99691.00;;;8.95;95.70
3082;BME280;1551;51.046;7.010;2024-01-06T03:04:09;99691.72;;;9.02;95.82
3082;BME280;1551;51.046;7.010;2024-01-06T03:06:58;99695.94;;;9.03;96.12
3082;BME280;1551;51.046;7.010;2024-01-06T03:09:47;99700.19;;;9.04;95.98
3082;BME280;1551;51.046;7.010;2024-01-06T03:12:35;99703.53;;;9.06;95.52
3082;BME280;1551;51.046;7.010;2024-01-06T03:15:25;99712.06;;;9.05;95.95
3082;BME280;1551;51.046;7.010;2024-01-06T03:18:14;99713.00;;;9.03;95.90
3082;BME280;1551;51.046;7.010;2024-01-06T03:21:03;99716.34;;;9.03;96.12
3082;BME280;1551;51.046;7.010;2024-01-06T03:23:52;99716.25;;;9.09;96.51
3082;BME280;1551;51.046;7.010;2024-01-06T03:26:44;99720.50;;;9.09;96.82
3082;BME280;1551;51.046;7.010;2024-01-06T03:29:33;99726.38;;;9.12;96.73
3082;BME280;1551;51.046;7.010;2024-01-06T03:32:22;99726.34;;;9.15;97.13
3082;BME280;1551;51.046;7.010;2024-01-06T03:35:10;99729.59;;;9.22;97.01
3082;BME280;1551;51.046;7.010;2024-01-06T03:38:00;99728.69;;;9.24;96.65
3082;BME280;1551;51.046;7.010;2024-01-06T03:40:48;99731.34;;;9.21;96.86
3082;BME280;1551;51.046;7.010;2024-01-06T03:43:37;99727.94;;;9.21;97.23
3082;BME280;1551;51.046;7.010;2024-01-06T03:46:27;99726.13;;;9.26;97.16
3082;BME280;1551;51.046;7.010;2024-01-06T03:49:16;99731.09;;;9.32;97.43
3082;BME280;1551;51.046;7.010;2024-01-06T03:52:07;99733.72;;;9.29;97.52
3082;BME280;1551;51.046;7.010;2024-01-06T03:54:56;99731.47;;;9.14;96.74
3082;BME280;1551;51.046;7.010;2024-01-06T03:57:45;99729.84;;;9.10;96.79
3082;BME280;1551;51.046;7.010;2024-01-06T04:00:34;99731.66;;;9.03;97.13
3082;BME280;1551;51.046;7.010;2024-01-06T04:03:23;99715.72;;;8.92;97.54
3082;BME280;1551;51.046;7.010;2024-01-06T04:06:11;99736.50;;;9.18;98.10
3082;BME280;1551;51.046;7.010;2024-01-06T04:09:00;99739.97;;;9.14;97.43
3082;BME280;1551;51.046;7.010;2024-01-06T04:11:50;99737.47;;;9.11;97.20
3082;BME280;1551;51.046;7.010;2024-01-06T04:14:39;99736.50;;;9.18;96.93
3082;BME280;1551;51.046;7.010;2024-01-06T04:17:28;99730.50;;;9.19;98.11
3082;BME280;1551;51.046;7.010;2024-01-06T04:20:17;99728.03;;;9.15;97.82
3082;BME280;1551;51.046;7.010;2024-01-06T04:23:07;99733.13;;;9.16;97.39
3082;BME280;1551;51.046;7.010;2024-01-06T04:25:56;99736.44;;;9.20;96.64
3082;BME280;1551;51.046;7.010;2024-01-06T04:28:45;99740.13;;;9.07;97.91
3082;BME280;1551;51.046;7.010;2024-01-06T04:31:34;99744.41;;;9.05;97.20
3082;BME280;1551;51.046;7.010;2024-01-06T04:34:23;99747.22;;;8.91;97.94
3082;BME280;1551;51.046;7.010;2024-01-06T04:37:12;99751.59;;;8.84;97.85
3082;BME280;1551;51.046;7.010;2024-01-06T04:40:01;99746.41;;;8.89;97.54
3082;BME280;1551;51.046;7.010;2024-01-06T04:42:51;99757.53;;;8.85;97.45
3082;BME280;1551;51.046;7.010;2024-01-06T04:45:40;99756.81;;;8.78;97.85
3082;BME280;1551;51.046;7.010;2024-01-06T04:48:28;99761.03;;;8.79;97.42
3082;BME280;1551;51.046;7.010;2024-01-06T04:51:17;99761.69;;;8.90;97.55
3082;BME280;1551;51.046;7.010;2024-01-06T04:54:06;99748.81;;;8.96;98.07
3082;BME280;1551;51.046;7.010;2024-01-06T04:56:56;99762.34;;;9.02;97.44
3082;BME280;1551;51.046;7.010;2024-01-06T04:59:44;99759.78;;;9.02;97.92
3082;BME280;1551;51.046;7.010;2024-01-06T05:02:34;99768.25;;;9.04;97.66
3082;BME280;1551;51.046;7.010;2024-01-06T05:05:23;99762.47;;;8.95;96.88
3082;BME280;1551;51.046;7.010;2024-01-06T05:08:12;99776.94;;;8.95;97.52
3082;BME280;1551;51.046;7.010;2024-01-06T05:11:01;99784.16;;;8.72;96.44
3082;BME280;1551;51.046;7.010;2024-01-06T05:13:50;99787.13;;;8.45;96.37
3082;BME280;1551;51.046;7.010;2024-01-06T05:16:39;99778.94;;;8.26;96.37
3082;BME280;1551;51.046;7.010;2024-01-06T05:19:28;99793.41;;;8.22;95.59
3082;BME280;1551;51.046;7.010;2024-01-06T05:22:17;99788.38;;;8.16;95.48
3082;BME280;1551;51.046;7.010;2024-01-06T05:25:06;99799.59;;;8.05;95.63
3082;BME280;1551;51.046;7.010;2024-01-06T05:27:55;99798.88;;;7.95;95.08
3082;BME280;1551;51.046;7.010;2024-01-06T05:30:44;99803.19;;;7.90;95.33
3082;BME280;1551;51.046;7.010;2024-01-06T05:33:33;99776.34;;;7.68;95.54
3082;BME280;1551;51.046;7.010;2024-01-06T05:36:22;99802.44;;;7.84;95.27
3082;BME280;1551;51.046;7.010;2024-01-06T05:39:11;99816.78;;;7.91;95.37
3082;BME280;1551;51.046;7.010;2024-01-06T05:42:00;99822.78;;;7.87;95.12
3082;BME280;1551;51.046;7.010;2024-01-06T05:44:49;99823.56;;;7.90;95.15
3082;BME280;1551;51.046;7.010;2024-01-06T05:47:39;99833.00;;;7.84;94.70
3082;BME280;1551;51.046;7.010;2024-01-06T05:50:28;99831.41;;;7.78;94.20
3082;BME280;1551;51.046;7.010;2024-01-06T05:53:17;99845.84;;;7.78;94.98
3082;BME280;1551;51.046;7.010;2024-01-06T05:56:07;99835.75;;;7.67;94.17
3082;BME280;1551;51.046;7.010;2024-01-06T05:58:58;99849.44;;;7.60;94.62
3082;BME280;1551;51.046;7.010;2024-01-06T06:01:47;99852.09;;;7.49;94.59
3082;BME280;1551;51.046;7.010;2024-01-06T06:04:36;99858.88;;;7.52;94.47
3082;BME280;1551;51.046;7.010;2024-01-06T06:07:25;99857.22;;;7.46;94.48
3082;BME280;1551;51.046;7.010;2024-01-06T06:10:14;99871.59;;;7.50;95.00
3082;BME280;1551;51.046;7.010;2024-01-06T06:13:04;99874.09;;;7.55;94.91
3082;BME280;1551;51.046;7.010;2024-01-06T06:15:53;99874.88;;;7.60;95.00
3082;BME280;1551;51.046;7.010;2024-01-06T06:18:43;99872.44;;;7.52;94.18
3082;BME280;1551;51.046;7.010;2024-01-06T06:21:32;99891.19;;;7.44;94.22
3082;BME280;1551;51.046;7.010;2024-01-06T06:24:21;99892.94;;;7.40;94.29
3082;BME280;1551;51.046;7.010;2024-01-06T06:27:10;99894.53;;;7.49;94.15
3082;BME280;1551;51.046;7.010;2024-01-06T06:29:59;99907.19;;;7.56;95.09
3082;BME280;1551;51.046;7.010;2024-01-06T06:32:48;99901.97;;;7.69;95.38
3082;BME280;1551;51.046;7.010;2024-01-06T06:35:37;99907.84;;;7.75;95.24
3082;BME280;1551;51.046;7.010;2024-01-06T06:38:27;99919.69;;;7.76;94.88
3082;BME280;1551;51.046;7.010;2024-01-06T06:41:16;99920.50;;;7.80;94.96
3082;BME280;1551;51.046;7.010;2024-01-06T06:44:05;99923.91;;;7.79;95.41
3082;BME280;1551;51.046;7.010;2024-01-06T06:46:53;99929.88;;;7.78;95.31
3082;BME280;1551;51.046;7.010;2024-01-06T06:49:42;99936.63;;;7.82;94.92
3082;BME280;1551;51.046;7.010;2024-01-06T06:52:31;99937.38;;;7.91;94.52
3082;BME280;1551;51.046;7.010;2024-01-06T06:55:20;99937.25;;;8.00;94.32
3082;BME280;1551;51.046;7.010;2024-01-06T06:58:09;99944.94;;;7.99;93.99
3082;BME280;1551;51.046;7.010;2024-01-06T07:00:58;99944.06;;;7.98;93.46
3082;BME280;1551;51.046;7.010;2024-01-06T07:03:47;99950.78;;;8.05;93.69
3082;BME280;1551;51.046;7.010;2024-01-06T07:06:36;99951.63;;;8.06;93.55
3082;BME280;1551;51.046;7.010;2024-01-06T07:09:25;99952.53;;;8.00;93.32
3082;BME280;1551;51.046;7.010;2024-01-06T07:12:14;99955.88;;;8.05;93.23
3082;BME280;1551;51.046;7.010;2024-01-06T07:15:03;99962.69;;;8.05;92.95
3082;BME280;1551;51.046;7.010;2024-01-06T07:17:52;99977.16;;;8.01;93.74
3082;BME280;1551;51.046;7.010;2024-01-06T07:20:41;99977.19;;;7.98;93.00
3082;BME280;1551;51.046;7.010;2024-01-06T07:23:30;99987.53;;;7.83;92.22
3082;BME280;1551;51.046;7.010;2024-01-06T07:26:19;99989.31;;;7.78;92.46
3082;BME280;1551;51.046;7.010;2024-01-06T07:29:08;99981.81;;;7.63;92.07
3082;BME280;1551;51.046;7.010;2024-01-06T07:31:57;99993.66;;;7.67;91.74
3082;BME280;1551;51.046;7.010;2024-01-06T07:34:46;100003.00;;;7.67;91.51
3082;BME280;1551;51.046;7.010;2024-01-06T07:37:35;100001.28;;;7.69;91.88
3082;BME280;1551;51.046;7.010;2024-01-06T07:40:24;100000.41;;;7.71;91.93
3082;BME280;1551;51.046;7.010;2024-01-06T07:43:14;100004.69;;;7.64;91.75
3082;BME280;1551;51.046;7.010;2024-01-06T07:46:04;100013.19;;;7.67;92.00
3082;BME280;1551;51.046;7.010;2024-01-06T07:48:53;100012.34;;;7.66;92.09
3082;BME280;1551;51.046;7.010;2024-01-06T07:51:42;100010.59;;;7.70;92.35
3082;BME280;1551;51.046;7.010;2024-01-06T07:54:31;100021.63;;;7.70;92.11
3082;BME280;1551;51.046;7.010;2024-01-06T07:57:20;100024.19;;;7.70;92.12
3082;BME280;1551;51.046;7.010;2024-01-06T08:00:10;100026.81;;;7.64;92.13
3082;BME280;1551;51.046;7.010;2024-01-06T08:03:01;100041.16;;;7.71;91.97
3082;BME280;1551;51.046;7.010;2024-01-06T08:05:53;100049.66;;;7.70;91.69
3082;BME280;1551;51.046;7.010;2024-01-06T08:08:43;100054.00;;;7.56;91.64
3082;BME280;1551;51.046;7.010;2024-01-06T08:11:31;100054.84;;;7.55;91.84
3082;BME280;1551;51.046;7.010;2024-01-06T08:14:20;100062.50;;;7.56;92.01
3082;BME280;1551;51.046;7.010;2024-01-06T08:17:09;100070.13;;;7.59;92.28
3082;BME280;1551;51.046;7.010;2024-01-06T08:19:58;100054.16;;;7.36;91.75
3082;BME280;1551;51.046;7.010;2024-01-06T08:22:48;100077.84;;;7.47;92.16
3082;BME280;1551;51.046;7.010;2024-01-06T08:25:37;100076.13;;;7.51;92.14
3082;BME280;1551;51.046;7.010;2024-01-06T08:28:26;100086.31;;;7.52;92.67
3082;BME280;1551;51.046;7.010;2024-01-06T08:31:15;100093.03;;;7.61;92.63
3082;BME280;1551;51.046;7.010;2024-01-06T08:34:04;100099.84;;;7.56;92.46
3082;BME280;1551;51.046;7.010;2024-01-06T08:36:55;100105.84;;;7.49;92.33
3082;BME280;1551;51.046;7.010;2024-01-06T08:39:44;100101.63;;;7.43;92.71
3082;BME280;1551;51.046;7.010;2024-01-06T08:42:33;100120.28;;;7.47;92.91
3082;BME280;1551;51.046;7.010;2024-01-06T08:45:22;100114.31;;;7.51;92.67
3082;BME280;1551;51.046;7.010;2024-01-06T08:48:11;100125.28;;;7.59;92.28
3082;BME280;1551;51.046;7.010;2024-01-06T08:51:02;100129.56;;;7.57;92.45
3082;BME280;1551;51.046;7.010;2024-01-06T08:53:52;100125.25;;;7.63;92.68
3082;BME280;1551;51.046;7.010;2024-01-06T08:56:42;100130.28;;;7.70;92.44
3082;BME280;1551;51.046;7.010;2024-01-06T08:59:30;100138.88;;;7.58;91.96
3082;BME280;1551;51.046;7.010;2024-01-06T09:02:19;100137.19;;;7.57;92.15
3082;BME280;1551;51.046;7.010;2024-01-06T09:05:08;100143.94;;;7.62;92.40
3082;BME280;1551;51.046;7.010;2024-01-06T09:07:57;100148.19;;;7.57;92.16
3082;BME280;1551;51.046;7.010;2024-01-06T09:10:46;100151.59;;;7.64;92.51
3082;BME280;1551;51.046;7.010;2024-01-06T09:13:35;100153.25;;;7.62;92.51
3082;BME280;1551;51.046;7.010;2024-01-06T09:16:24;100151.66;;;7.52;92.19
3082;BME280;1551;51.046;7.010;2024-01-06T09:19:13;100162.72;;;7.46;92.56
3082;BME280;1551;51.046;7.010;2024-01-06T09:22:02;100170.38;;;7.45;92.46
3082;BME280;1551;51.046;7.010;2024-01-06T09:24:52;100178.00;;;7.45;92.71
3082;BME280;1551;51.046;7.010;2024-01-06T09:27:41;100178.84;;;7.44;93.25
3082;BME280;1551;51.046;7.010;2024-01-06T09:30:30;100164.44;;;7.41;92.86
3082;BME280;1551;51.046;7.010;2024-01-06T09:33:19;100187.41;;;7.32;92.94
3082;BME280;1551;51.046;7.010;2024-01-06T09:36:08;100194.22;;;7.29;93.22
3082;BME280;1551;51.046;7.010;2024-01-06T09:39:02;100193.31;;;7.40;93.97
3082;BME280;1551;51.046;7.010;2024-01-06T09:41:51;100204.31;;;7.42;93.82
3082;BME280;1551;51.046;7.010;2024-01-06T09:44:40;100214.44;;;7.53;94.25
3082;BME280;1551;51.046;7.010;2024-01-06T09:47:33;100204.25;;;7.56;93.78
3082;BME280;1551;51.046;7.010;2024-01-06T09:50:23;100211.88;;;7.53;93.99
3082;BME280;1551;51.046;7.010;2024-01-06T09:53:13;100211.09;;;7.43;93.76
3082;BME280;1551;51.046;7.010;2024-01-06T09:56:03;100217.91;;;7.40;93.75
3082;BME280;1551;51.046;7.010;2024-01-06T09:58:52;100218.69;;;7.51;94.39
3082;BME280;1551;51.046;7.010;2024-01-06T10:01:41;100217.88;;;7.46;93.44
3082;BME280;1551;51.046;7.010;2024-01-06T10:04:31;100222.94;;;7.52;94.09
3082;BME280;1551;51.046;7.010;2024-01-06T10:07:20;100227.19;;;7.54;94.03
3082;BME280;1551;51.046;7.010;2024-01-06T10:10:09;100228.88;;;7.52;94.25
3082;BME280;1551;51.046;7.010;2024-01-06T10:12:59;100223.78;;;7.54;94.08
3082;BME280;1551;51.046;7.010;2024-01-06T10:15:48;100222.97;;;7.41;93.26
3082;BME280;1551;51.046;7.010;2024-01-06T10:18:38;100226.41;;;7.40;93.97
3082;BME280;1551;51.046;7.010;2024-01-06T10:21:27;100228.97;;;7.36;94.00
3082;BME280;1551;51.046;7.010;2024-01-06T10:24:19;100231.50;;;7.34;93.83
3082;BME280;1551;51.046;7.010;2024-01-06T10:27:09;100231.53;;;7.28;93.91
3082;BME280;1551;51.046;7.010;2024-01-06T10:29:58;100230.66;;;7.32;94.24
3082;BME280;1551;51.046;7.010;2024-01-06T10:32:47;100235.75;;;7.38;93.98
3082;BME280;1551;51.046;7.010;2024-01-06T10:35:36;100234.06;;;7.33;94.17
3082;BME280;1551;51.046;7.010;2024-01-06T10:38:26;100227.25;;;7.36;94.57
3082;BME280;1551;51.046;7.010;2024-01-06T10:41:16;100235.69;;;7.46;94.65
3082;BME280;1551;51.046;7.010;2024-01-06T10:44:06;100232.31;;;7.45;94.24
3082;BME280;1551;51.046;7.010;2024-01-06T10:46:57;100221.34;;;7.28;94.23
3082;BME280;1551;51.046;7.010;2024-01-06T10:49:48;100238.28;;;7.37;94.40
3082;BME280;1551;51.046;7.010;2024-01-06T10:52:38;100235.81;;;7.20;94.04
3082;BME280;1551;51.046;7.010;2024-01-06T10:55:28;100242.56;;;7.29;94.46
3082;BME280;1551;51.046;7.010;2024-01-06T10:58:18;100241.72;;;7.27;94.49
3082;BME280;1551;51.046;7.010;2024-01-06T11:01:07;100243.47;;;7.17;94.20
3082;BME280;1551;51.046;7.010;2024-01-06T11:03:57;100236.69;;;7.09;93.94
3082;BME280;1551;51.046;7.010;2024-01-06T11:06:48;100251.97;;;7.10;94.54
3082;BME280;1551;51.046;7.010;2024-01-06T11:09:46;100242.59;;;7.20;94.53
3082;BME280;1551;51.046;7.010;2024-01-06T11:12:36;100242.56;;;7.27;94.29
3082;BME280;1551;51.046;7.010;2024-01-06T11:15:46;100240.94;;;7.17;94.18
3082;BME280;1551;51.046;7.010;2024-01-06T11:18:36;100241.78;;;7.12;94.06
3082;BME280;1551;51.046;7.010;2024-01-06T11:21:33;100242.63;;;7.12;94.18
3082;BME280;1551;51.046;7.010;2024-01-06T11:24:23;100242.63;;;7.17;94.17
3082;BME280;1551;51.046;7.010;2024-01-06T11:27:21;100249.38;;;7.21;94.29
3082;BME280;1551;51.046;7.010;2024-01-06T11:30:26;100243.47;;;7.17;94.65
3082;BME280;1551;51.046;7.010;2024-01-06T11:33:17;100244.31;;;7.15;94.07
3082;BME280;1551;51.046;7.010;2024-01-06T11:36:08;100249.41;;;7.12;93.80
3082;BME280;1551;51.046;7.010;2024-01-06T11:38:59;100252.84;;;7.00;93.90
3082;BME280;1551;51.046;7.010;2024-01-06T11:41:49;100250.28;;;7.05;93.65
3082;BME280;1551;51.046;7.010;2024-01-06T11:44:40;100250.28;;;7.08;93.81
3082;BME280;1551;51.046;7.010;2024-01-06T11:47:32;100249.44;;;6.97;93.17
3082;BME280;1551;51.046;7.010;2024-01-06T11:50:21;100255.41;;;6.99;93.55
3082;BME280;1551;51.046;7.010;2024-01-06T11:53:11;100252.84;;;6.97;93.78
3082;BME280;1551;51.046;7.010;2024-01-06T11:56:00;100257.09;;;6.98;94.39
3082;BME280;1551;51.046;7.010;2024-01-06T11:58:49;100247.81;;;6.82;93.41
3082;BME280;1551;51.046;7.010;2024-01-06T12:01:39;100251.19;;;6.73;94.00
3082;BME280;1551;51.046;7.010;2024-01-06T12:04:28;100252.00;;;6.87;94.17
3082;BME280;1551;51.046;7.010;2024-01-06T12:07:21;100251.16;;;6.90;93.87
3082;BME280;1551;51.046;7.010;2024-01-06T12:10:13;100258.81;;;6.88;93.94
3082;BME280;1551;51.046;7.010;2024-01-06T12:13:06;100256.28;;;6.84;94.01
3082;BME280;1551;51.046;7.010;2024-01-06T12:15:59;100257.97;;;6.82;94.17
3082;BME280;1551;51.046;7.010;2024-01-06T12:18:48;100258.00;;;6.70;94.17
3082;BME280;1551;51.046;7.010;2024-01-06T12:21:37;100258.81;;;6.81;94.61
3082;BME280;1551;51.046;7.010;2024-01-06T12:24:27;100264.75;;;6.77;94.58
3082;BME280;1551;51.046;7.010;2024-01-06T12:27:17;100263.06;;;6.77;94.64
3082;BME280;1551;51.046;7.010;2024-01-06T12:30:12;100274.09;;;6.79;93.90
3082;BME280;1551;51.046;7.010;2024-01-06T12:33:04;100265.59;;;6.68;93.79
3082;BME280;1551;51.046;7.010;2024-01-06T12:35:53;100268.16;;;6.65;94.25
3082;BME280;1551;51.046;7.010;2024-01-06T12:38:43;100274.09;;;6.70;94.36
3082;BME280;1551;51.046;7.010;2024-01-06T12:41:32;100278.31;;;6.64;94.42
3082;BME280;1551;51.046;7.010;2024-01-06T12:44:22;100280.88;;;6.62;94.57
3082;BME280;1551;51.046;7.010;2024-01-06T12:47:12;100269.00;;;6.52;93.78
3082;BME280;1551;51.046;7.010;2024-01-06T12:50:00;100285.13;;;6.51;94.16
3082;BME280;1551;51.046;7.010;2024-01-06T12:52:49;100278.34;;;6.53;93.91
3082;BME280;1551;51.046;7.010;2024-01-06T12:55:38;100279.19;;;6.54;93.57
3082;BME280;1551;51.046;7.010;2024-01-06T12:58:28;100289.34;;;6.55;94.06
3082;BME280;1551;51.046;7.010;2024-01-06T13:01:17;100288.50;;;6.64;93.69
3082;BME280;1551;51.046;7.010;2024-01-06T13:04:06;100285.09;;;6.62;93.35
3082;BME280;1551;51.046;7.010;2024-01-06T13:06:55;100291.03;;;6.55;93.07
3082;BME280;1551;51.046;7.010;2024-01-06T13:09:44;100285.94;;;6.64;93.49
3082;BME280;1551;51.046;7.010;2024-01-06T13:12:33;100287.66;;;6.69;93.87
3082;BME280;1551;51.046;7.010;2024-01-06T13:15:22;100285.09;;;6.74;93.51
3082;BME280;1551;51.046;7.010;2024-01-06T13:18:12;100290.22;;;6.63;92.88
3082;BME280;1551;51.046;7.010;2024-01-06T13:21:01;100302.91;;;6.62;93.41
3082;BME280;1551;51.046;7.010;2024-01-06T13:23:50;100296.13;;;6.55;93.11
3082;BME280;1551;51.046;7.010;2024-01-06T13:26:39;100296.16;;;6.56;93.51
3082;BME280;1551;51.046;7.010;2024-01-06T13:29:29;100293.59;;;6.67;93.10
3082;BME280;1551;51.046;7.010;2024-01-06T13:32:18;100296.13;;;6.68;93.07
3082;BME280;1551;51.046;7.010;2024-01-06T13:35:08;100302.94;;;6.63;92.45
3082;BME280;1551;51.046;7.010;2024-01-06T13:38:00;100304.59;;;6.52;92.04
3082;BME280;1551;51.046;7.010;2024-01-06T13:40:49;100306.28;;;6.52;92.29
3082;BME280;1551;51.046;7.010;2024-01-06T13:43:38;100314.78;;;6.49;92.10
3082;BME280;1551;51.046;7.010;2024-01-06T13:46:27;100315.63;;;6.50;92.34
3082;BME280;1551;51.046;7.010;2024-01-06T13:49:15;100322.41;;;6.55;92.66
3082;BME280;1551;51.046;7.010;2024-01-06T13:52:05;100323.25;;;6.48;92.81
3082;BME280;1551;51.046;7.010;2024-01-06T13:54:54;100337.66;;;6.54;92.19
3082;BME280;1551;51.046;7.010;2024-01-06T13:57:43;100339.34;;;6.46;91.70
3082;BME280;1551;51.046;7.010;2024-01-06T14:00:31;100339.31;;;6.38;91.80
3082;BME280;1551;51.046;7.010;2024-01-06T14:03:20;100341.88;;;6.35;92.72
3082;BME280;1551;51.046;7.010;2024-01-06T14:06:11;100346.09;;;6.32;92.12
3082;BME280;1551;51.046;7.010;2024-01-06T14:09:00;100346.09;;;6.29;92.22
3082;BME280;1551;51.046;7.010;2024-01-06T14:11:49;100356.28;;;6.36;92.01
3082;BME280;1551;51.046;7.010;2024-01-06T14:14:38;100357.09;;;6.26;92.01
3082;BME280;1551;51.046;7.010;2024-01-06T14:17:27;100358.78;;;6.22;92.13
3082;BME280;1551;51.046;7.010;2024-01-06T14:20:16;100362.19;;;6.24;92.67
3082;BME280;1551;51.046;7.010;2024-01-06T14:23:06;100365.59;;;6.28;92.43
3082;BME280;1551;51.046;7.010;2024-01-06T14:25:55;100372.38;;;6.31;92.26
3082;BME280;1551;51.046;7.010;2024-01-06T14:28:44;100377.41;;;6.26;92.62
3082;BME280;1551;51.046;7.010;2024-01-06T14:31:33;100378.25;;;6.14;92.26
3082;BME280;1551;51.046;7.010;2024-01-06T14:34:22;100379.94;;;6.09;91.93
3082;BME280;1551;51.046;7.010;2024-01-06T14:37:11;100393.47;;;6.02;92.43
3082;BME280;1551;51.046;7.010;2024-01-06T14:40:01;100396.00;;;6.05;92.70
3082;BME280;1551;51.046;7.010;2024-01-06T14:42:54;100398.50;;;5.98;92.02
3082;BME280;1551;51.046;7.010;2024-01-06T14:45:43;100402.75;;;5.99;92.64
3082;BME280;1551;51.046;7.010;2024-01-06T14:48:32;100404.47;;;6.03;92.51
3082;BME280;1551;51.046;7.010;2024-01-06T14:51:21;100407.00;;;6.01;92.25
3082;BME280;1551;51.046;7.010;2024-01-06T14:54:10;100412.09;;;6.04;92.32
3082;BME280;1551;51.046;7.010;2024-01-06T14:57:00;100415.47;;;6.02;92.46
3082;BME280;1551;51.046;7.010;2024-01-06T14:59:49;100418.84;;;5.99;92.73
3082;BME280;1551;51.046;7.010;2024-01-06T15:02:38;100420.50;;;5.91;92.47
3082;BME280;1551;51.046;7.010;2024-01-06T15:05:28;100430.66;;;5.91;92.19
3082;BME280;1551;51.046;7.010;2024-01-06T15:08:18;100429.88;;;6.01;92.50
3082;BME280;1551;51.046;7.010;2024-01-06T15:11:08;100441.72;;;6.05;92.62
3082;BME280;1551;51.046;7.010;2024-01-06T15:13:57;100434.13;;;6.10;92.20
3082;BME280;1551;51.046;7.010;2024-01-06T15:16:46;100439.97;;;5.94;92.69
3082;BME280;1551;51.046;7.010;2024-01-06T15:19:35;100442.44;;;5.83;92.80
3082;BME280;1551;51.046;7.010;2024-01-06T15:22:27;100450.97;;;5.88;92.71
3082;BME280;1551;51.046;7.010;2024-01-06T15:25:16;100451.00;;;5.93;93.19
3082;BME280;1551;51.046;7.010;2024-01-06T15:28:06;100454.38;;;5.90;92.50